Flight Track Log - Related Links

Times and Time Zones

All times are in EDT time to prevent confusion due to time zone crossing. See the KEE209 flight status page for this flight to view local times or setup timezone preferences in your user account.

Time Position Orientation Groundspeed Altitude Reporting Facility
EDT Latitude Longitude Course Direction KTS MPH feet Rate Location/Type
Thu 10:17:11 AM 49.9000 -97.4000 North 300 345 5,600  Level Winnipeg Center
Thu 10:19:00 AM 49.9000 -97.2333 180° South  Level FlightAware Approximate
Thu 10:26:00 AM 49.9100 -97.2344 180° South  Level Estimated
Thu 10:27:00 AM 49.9100 -97.2344 180° South  Level Estimated
Thu 10:28:00 AM 49.9100 -97.2344 180° South  Level Estimated
Thu 10:29:00 AM 49.9100 -97.2344 180° South  Level Estimated
Thu 10:30:00 AM 49.9100 -97.2344 180° South  Level Estimated
Thu 10:31:00 AM 49.9100 -97.2344 180° South  Level Estimated
Thu 10:32:00 AM 49.9100 -97.2344 180° South  Level Estimated
Thu 10:33:00 AM 49.9100 -97.2344 180° South  Level Estimated
Thu 10:34:00 AM 49.9100 -97.2344 180° South  Level Estimated
Thu 10:35:00 AM 49.9100 -97.2344 180° South  Level Estimated
Thu 10:36:00 AM 49.9100 -97.2344 180° South  Level Estimated
Thu 10:37:00 AM 49.9100 -97.2344 180° South  Level Estimated
Thu 10:38:00 AM 49.9100 -97.2344 180° South  Level Estimated
Thu 10:39:00 AM 49.9100 -97.2344 180° South  Level Estimated
Thu 10:40:00 AM 49.9100 -97.2344 180° South  Level Estimated
Thu 10:41:00 AM 49.9100 -97.2344 180° South  Level Estimated
Thu 10:42:00 AM 49.9100 -97.2344 180° South  Level Estimated
Thu 10:43:00 AM 49.9100 -97.2344 180° South  Level Estimated
Thu 10:44:00 AM 49.9100 -97.2344 180° South  Level Estimated
Thu 10:45:00 AM 49.9100 -97.2344 180° South  Level Estimated
Thu 10:46:00 AM 49.9100 -97.2344 180° South  Level Estimated
Thu 10:46:50 AM 55.0167 -96.6333 180° South 220 253 23,900  Level Winnipeg Center
Thu 10:47:00 AM 49.9100 -97.2344 180° South  Level Estimated
Thu 10:47:50 AM 54.9500 -96.6500 188° South 240 276 23,800  Level Winnipeg Center
Thu 10:48:00 AM 49.9100 -97.2344 180° South  Level Estimated
Thu 10:48:50 AM 54.8833 -96.6500 180° South 250 288 23,900  Level Winnipeg Center
Thu 10:49:00 AM 49.9100 -97.2344 180° South  Level Estimated
Thu 10:49:50 AM 54.8167 -96.6667 188° South 250 288 23,900  Level Winnipeg Center
Thu 10:50:00 AM 49.9100 -97.2344 180° South  Level Estimated
Thu 10:50:51 AM 54.7333 -96.6667 180° South 250 288 23,900  Level Winnipeg Center
Thu 10:51:00 AM 49.9100 -97.2344 180° South  Level Estimated
Thu 10:51:50 AM 54.6667 -96.6667 180° South 250 288 23,900  Level Winnipeg Center
Thu 10:52:00 AM 49.9100 -97.2344 180° South  Level Estimated
Thu 10:52:50 AM 54.6000 -96.6667 180° South 250 288 23,900  Level Winnipeg Center
Thu 10:53:50 AM 54.5333 -96.7000 196° South 260 299 23,900  Level Winnipeg Center
Thu 10:54:50 AM 54.4500 -96.7000 180° South 260 299 23,900  Level Winnipeg Center
Thu 10:55:50 AM 54.3833 -96.7333 196° South 260 299 23,900  Level Winnipeg Center
Thu 10:57:00 AM 54.3050 -96.7419 184° South  Level FlightAware Approximate
Thu 10:57:50 AM 54.2333 -96.7333 184° South 260 299 23,900  Level Winnipeg Center
Thu 10:58:50 AM 54.1667 -96.7333 180° South 260 299 23,900 50 Level Winnipeg Center
Thu 10:59:51 AM 54.1000 -96.7667 196° South 260 299 24,000  Climbing Winnipeg Center
Thu 11:00:51 AM 54.0333 -96.7667 180° South 260 299 23,900 -50 Descending Winnipeg Center
Thu 11:01:51 AM 53.9500 -96.7667 180° South 260 299 23,900 50 Level Winnipeg Center
Thu 11:02:51 AM 53.8833 -96.8000 196° South 260 299 24,000  Climbing Winnipeg Center
Thu 11:03:50 AM 53.8167 -96.8000 180° South 260 299 23,900  Descending Winnipeg Center
Thu 11:04:51 AM 53.7333 -96.8000 180° South 260 299 24,000  Climbing Winnipeg Center
Thu 11:05:51 AM 53.6667 -96.8000 180° South 260 299 23,900 -50 Descending Winnipeg Center
Thu 11:06:50 AM 53.6000 -96.8000 180° South 260 299 23,900  Level Winnipeg Center
Thu 11:07:51 AM 53.5333 -96.8167 188° South 250 288 23,900  Level Winnipeg Center
Thu 11:08:51 AM 53.4500 -96.8167 180° South 250 288 23,900  Level Winnipeg Center
Thu 11:09:50 AM 53.3833 -96.8500 197° South 250 288 23,900  Level Winnipeg Center
Thu 11:10:51 AM 53.3167 -96.8500 180° South 250 288 23,900  Level Winnipeg Center
Thu 11:11:51 AM 53.2500 -96.8500 180° South 250 288 23,900  Level Winnipeg Center
Thu 11:12:51 AM 53.1833 -96.8833 197° South 250 288 23,900  Level Winnipeg Center
Thu 11:14:00 AM 53.1060 -96.8895 183° South  Level FlightAware Approximate
Thu 11:15:16 AM 53.0000 -96.8833 183° South 240 276 23,900  Level Winnipeg Center
Thu 11:16:16 AM 52.9167 -96.9167 194° South 250 288 23,900 50 Level Winnipeg Center
Thu 11:17:16 AM 52.8500 -96.9167 180° South 260 299 24,000 50 Climbing Winnipeg Center
Thu 11:18:16 AM 52.7833 -96.9333 189° South 250 288 24,000  Level Winnipeg Center
Thu 11:19:16 AM 52.7167 -96.9333 180° South 260 299 24,000 -50 Level Winnipeg Center
Thu 11:20:16 AM 52.6333 -96.9333 180° South 260 299 23,900  Descending Winnipeg Center
Thu 11:21:16 AM 52.5667 -96.9333 180° South 260 299 24,000 50 Climbing Winnipeg Center
Thu 11:22:15 AM 52.5000 -96.9667 197° South 250 288 24,000 -50 Level Winnipeg Center
Thu 11:23:16 AM 52.4333 -96.9667 180° South 260 299 23,900  Descending Winnipeg Center
Thu 11:24:16 AM 52.3500 -96.9667 180° South 250 288 24,000  Climbing Winnipeg Center
Thu 11:25:16 AM 52.2833 -96.9667 180° South 250 288 23,900 -42 Descending Winnipeg Center
Thu 11:26:39 AM 52.1833 -97.0000 192° South 250 288 23,900  Level Winnipeg Center
Thu 11:27:39 AM 52.1167 -97.0000 180° South 250 288 23,900  Level Winnipeg Center
Thu 11:28:39 AM 52.0500 -97.0000 180° South 250 288 23,900  Level Winnipeg Center
Thu 11:29:39 AM 51.9833 -97.0000 180° South 250 288 23,900  Level Winnipeg Center
Thu 11:30:39 AM 51.9167 -97.0000 180° South 250 288 23,900  Level Winnipeg Center
Thu 11:31:39 AM 51.8500 -97.0000 180° South 250 288 23,900  Level Winnipeg Center
Thu 11:32:39 AM 51.7833 -97.0167 189° South 250 288 23,900  Level Winnipeg Center
Thu 11:33:39 AM 51.7167 -97.0167 180° South 240 276 23,900 50 Level Winnipeg Center
Thu 11:34:39 AM 51.6500 -97.0167 180° South 250 288 24,000  Climbing Winnipeg Center
Thu 11:35:39 AM 51.5667 -97.0167 180° South 250 288 23,900 -50 Descending Winnipeg Center
Thu 11:36:39 AM 51.5000 -97.0167 180° South 240 276 23,900 50 Level Winnipeg Center
Thu 11:37:39 AM 51.4333 -97.0000 171° South 240 276 24,000  Climbing Winnipeg Center
Thu 11:38:39 AM 51.3667 -97.0167 189° South 240 276 23,900 -50 Descending Winnipeg Center
Thu 11:39:39 AM 51.3000 -97.0167 180° South 240 276 23,900 -50 Level Winnipeg Center
Thu 11:40:39 AM 51.2333 -97.0500 197° South 250 288 23,800 -550 Descending Winnipeg Center
Thu 11:41:39 AM 51.1667 -97.0500 180° South 260 299 22,800 -1,050 Descending Winnipeg Center
Thu 11:42:39 AM 51.0833 -97.0167 166° South 280 322 21,700 -1,100 Descending Winnipeg Center
Thu 11:43:39 AM 51.0167 -97.0167 180° South 280 322 20,600 -1,250 Descending Winnipeg Center
Thu 11:44:39 AM 50.9333 -97.0500 194° South 270 311 19,200 -1,350 Descending Winnipeg Center
Thu 11:45:39 AM 50.8667 -97.0500 180° South 270 311 17,900 -1,550 Descending Winnipeg Center
Thu 11:46:39 AM 50.7833 -97.0500 180° South 270 311 16,100 -2,050 Descending Winnipeg Center
Thu 11:47:39 AM 50.7000 -97.0667 187° South 280 322 13,800 -2,300 Descending Winnipeg Center
Thu 11:48:39 AM 50.6333 -97.0667 180° South 280 322 11,500 -2,200 Descending Winnipeg Center
Thu 11:49:39 AM 50.5500 -97.0667 180° South 270 311 9,400 -1,250 Descending Winnipeg Center
Thu 11:50:39 AM 50.4833 -97.1000 198° South 250 288 9,000 -200 Descending Winnipeg Center
Thu 11:51:39 AM 50.4167 -97.1167 189° South 220 253 9,000 -500 Level Winnipeg Center
Thu 11:52:39 AM 50.3667 -97.1167 180° South 240 276 8,000 -950 Descending Winnipeg Center
Thu 11:53:39 AM 50.3000 -97.1167 180° South 240 276 7,100 -500 Descending Winnipeg Center
Thu 11:54:39 AM 50.2333 -97.1500 198° South 210 242 7,000 -450 Descending Winnipeg Center
Thu 11:55:39 AM 50.1833 -97.1500 180° South 220 253 6,200 -1,300 Descending Winnipeg Center
Thu 11:56:39 AM 50.1167 -97.1167 162° South 230 265 4,400 -1,500 Descending Winnipeg Center
Thu 11:57:39 AM 50.0500 -97.1000 171° South 230 265 3,200 -700 Descending Winnipeg Center
Thu 11:58:39 AM 50.0000 -97.0667 157° South 200 230 3,000 -100 Descending Winnipeg Center
Thu 11:59:39 AM 49.9500 -97.0667 180° South 190 219 3,000 -50 Level Winnipeg Center
Thu 12:00:39 PM 49.9000 -97.0500 168° South 190 219 2,900  Descending Winnipeg Center
Thu 12:01:39 PM 49.8333 -97.0167 162° South 190 219 3,000 50 Climbing Winnipeg Center
Thu 12:02:39 PM 49.8000 -97.0500 213° Southwest 190 219 3,000 -50 Level Winnipeg Center
Thu 12:03:39 PM 49.8000 -97.1000 270° West 170 196 2,900 -450 Descending Winnipeg Center
Thu 12:04:39 PM 49.8333 -97.1500 316° Northwest 150 173 2,100 -800 Descending Winnipeg Center
Thu 12:05:39 PM 49.8667 -97.2000 316° Northwest 150 173 1,300 -650 Descending Winnipeg Center
Thu 12:06:39 PM 49.8833 -97.2333 308° West 90 104 800 -500 Descending Winnipeg Center

Login

Don't have an account? Register now (free) for customized features, flight alerts, and more!